createdAt,value
2022-07-28T00:04:03.059Z,15.33
2022-07-28T00:14:05.544Z,15.20
2022-07-28T00:24:07.934Z,15.03
2022-07-28T00:34:10.389Z,14.96
2022-07-28T00:44:13.031Z,14.84
2022-07-28T00:54:15.691Z,14.73
2022-07-28T01:04:18.788Z,14.57
2022-07-28T01:14:32.766Z,14.50
2022-07-28T01:25:00.737Z,14.44
2022-07-28T01:35:32.349Z,14.28
2022-07-28T01:45:35.402Z,14.20
2022-07-28T01:55:39.527Z,14.09
2022-07-28T02:05:43.844Z,14.06
2022-07-28T02:15:47.076Z,13.92
2022-07-28T02:25:51.675Z,13.74
2022-07-28T02:35:57.583Z,13.64
2022-07-28T02:46:10.718Z,13.50
2022-07-28T02:56:13.295Z,13.35
2022-07-28T03:06:19.905Z,13.22
2022-07-28T03:16:30.588Z,13.12
2022-07-28T03:26:43.680Z,13.01
2022-07-28T03:36:50.373Z,12.90
2022-07-28T03:46:52.650Z,12.79
2022-07-28T03:56:54.930Z,12.70
2022-07-28T04:06:57.172Z,12.64
2022-07-28T04:16:59.395Z,12.58
2022-07-28T04:27:01.740Z,12.51
2022-07-28T04:37:04.435Z,12.53
2022-07-28T04:47:07.443Z,12.65
2022-07-28T04:57:12.726Z,12.83
2022-07-28T05:07:15.348Z,13.07
2022-07-28T05:17:17.510Z,13.36
2022-07-28T05:27:19.748Z,13.67
2022-07-28T05:37:22.304Z,14.02
2022-07-28T05:47:24.503Z,14.36
2022-07-28T05:57:26.777Z,14.80
2022-07-28T06:07:43.036Z,15.35
2022-07-28T06:17:47.440Z,15.86
2022-07-28T06:27:51.529Z,16.37
2022-07-28T06:37:53.959Z,16.88
2022-07-28T06:47:57.401Z,17.50
2022-07-28T06:57:59.679Z,17.88
2022-07-28T07:08:04.009Z,18.27
2022-07-28T07:18:06.612Z,18.68
2022-07-28T07:28:08.859Z,18.97
2022-07-28T07:38:11.882Z,19.44
2022-07-28T07:48:14.285Z,20.08
2022-07-28T07:58:16.758Z,20.51
2022-07-28T08:08:19.167Z,21.02
2022-07-28T08:18:21.717Z,21.33
2022-07-28T08:28:24.604Z,21.69
2022-07-28T08:38:27.637Z,22.14
2022-07-28T08:48:37.446Z,22.55
2022-07-28T08:58:40.336Z,23.09
2022-07-28T09:08:43.749Z,23.59
2022-07-28T09:18:46.057Z,23.79
2022-07-28T09:28:54.313Z,24.32
2022-07-28T09:38:57.775Z,25.10
2022-07-28T09:49:01.508Z,25.42
2022-07-28T09:59:08.758Z,26.02
2022-07-28T10:09:14.921Z,25.88
2022-07-28T10:19:17.649Z,25.57
2022-07-28T10:29:23.688Z,25.79
2022-07-28T10:39:41.189Z,26.03
2022-07-28T10:49:43.912Z,26.43
2022-07-28T11:00:25.847Z,26.98
2022-07-28T11:10:30.970Z,27.26
2022-07-28T11:20:52.992Z,27.61
2022-07-28T11:30:59.409Z,28.40
2022-07-28T11:41:01.888Z,28.78
2022-07-28T11:51:05.490Z,28.85
2022-07-28T12:01:18.157Z,29.06
2022-07-28T12:11:21.552Z,29.37
2022-07-28T12:21:46.618Z,30.28
2022-07-28T12:32:00.045Z,29.85
2022-07-28T12:42:10.465Z,30.52
2022-07-28T12:52:22.033Z,30.58
2022-07-28T13:02:37.926Z,30.79
2022-07-28T13:12:40.650Z,31.02
2022-07-28T13:22:45.991Z,31.34
2022-07-28T13:32:48.816Z,31.81
2022-07-28T13:42:53.358Z,32.21
2022-07-28T13:52:59.651Z,32.61
2022-07-28T14:03:02.861Z,33.24
2022-07-28T14:13:05.846Z,33.22
2022-07-28T14:23:09.224Z,32.16
2022-07-28T14:33:12.200Z,32.05
2022-07-28T14:43:14.824Z,31.66
2022-07-28T14:53:17.520Z,31.37
2022-07-28T15:03:20.399Z,31.41
2022-07-28T15:13:23.955Z,31.08
2022-07-28T15:23:26.933Z,30.13
2022-07-28T15:33:29.419Z,29.81
2022-07-28T15:43:34.983Z,30.38
2022-07-28T15:53:38.150Z,30.32
2022-07-28T16:03:43.755Z,29.59
2022-07-28T16:13:48.015Z,29.42
2022-07-28T16:23:52.493Z,29.39
2022-07-28T16:33:57.762Z,29.39
2022-07-28T16:44:01.533Z,28.64
2022-07-28T16:54:04.208Z,28.13
2022-07-28T17:04:07.823Z,28.03
2022-07-28T17:14:11.907Z,27.61
2022-07-28T17:24:15.202Z,27.33
2022-07-28T17:34:18.509Z,27.26
2022-07-28T17:44:21.914Z,27.25
2022-07-28T17:54:25.340Z,27.59
2022-07-28T18:04:27.715Z,27.41
2022-07-28T18:14:30.787Z,26.85
2022-07-28T18:24:33.203Z,26.18
2022-07-28T18:34:37.170Z,25.61
2022-07-28T18:44:39.721Z,25.03
2022-07-28T18:54:43.852Z,24.32
2022-07-28T19:04:47.757Z,23.69
2022-07-28T19:14:50.004Z,23.16
2022-07-28T19:24:55.487Z,22.65
2022-07-28T19:35:18.909Z,22.23
2022-07-28T19:45:21.548Z,21.83
2022-07-28T19:55:24.571Z,21.53
2022-07-28T20:05:28.195Z,21.26
2022-07-28T20:15:31.175Z,20.99
2022-07-28T20:25:33.632Z,20.78
2022-07-28T20:35:36.965Z,20.61
2022-07-28T20:45:39.154Z,20.49
2022-07-28T20:55:41.467Z,20.45
2022-07-28T21:05:44.395Z,20.38
2022-07-28T21:15:47.080Z,20.25
2022-07-28T21:25:51.253Z,20.09
2022-07-28T21:35:53.976Z,20.08
2022-07-28T21:45:56.515Z,20.11
2022-07-28T21:55:59.208Z,20.04
2022-07-28T22:06:01.977Z,19.96
2022-07-28T22:16:05.374Z,19.81
2022-07-28T22:26:08.210Z,19.68
2022-07-28T22:36:10.656Z,19.52
2022-07-28T22:46:13.242Z,19.42
2022-07-28T23:06:36.955Z,19.28
2022-07-28T23:16:39.371Z,19.16
2022-07-28T23:26:41.858Z,19.05
2022-07-28T23:36:45.371Z,18.93
2022-07-28T23:46:47.872Z,18.98
2022-07-28T23:56:52.287Z,18.93
